Time;durP1;ratioP1;P1;durP2;ratioP2;P2;SDS_P1;SDS_P2;PMS_P1;PMS_P2;Temp;Humidity;BMP_temperature;BMP_pressure;BME280_temperature;BME280_humidity;BME280_pressure;Samples;Min_cycle;Max_cycle;Signal;HPM_P1;HPM_P2
2022/07/27 00:00:52;;;;;;;1.90;1.30;;;;;;;18.08;66.43;95873.84;5035448;28;24446;-72
2022/07/27 00:03:18;;;;;;;2.13;1.30;;;;;;;18.21;65.82;95877.00;5037804;28;24438;-73
2022/07/27 00:05:45;;;;;;;2.63;1.42;;;;;;;18.29;65.83;95876.31;5039974;28;24493;-72
2022/07/27 00:08:11;;;;;;;3.90;1.10;;;;;;;18.36;65.48;95872.97;5039530;28;24439;-72
2022/07/27 00:10:38;;;;;;;1.80;0.97;;;;;;;18.51;64.60;95875.97;5039170;28;24477;-72
2022/07/27 00:13:05;;;;;;;1.92;1.10;;;;;;;18.50;64.71;95876.94;5040439;28;24450;-72
2022/07/27 00:15:33;;;;;;;2.33;1.00;;;;;;;18.56;64.24;95872.91;5041885;28;24859;-72
2022/07/27 00:18:00;;;;;;;3.70;1.30;;;;;;;18.71;64.56;95879.38;5041456;28;24538;-72
2022/07/27 00:20:27;;;;;;;2.57;1.13;;;;;;;18.69;64.17;95865.56;5034725;28;24519;-72
2022/07/27 00:22:53;;;;;;;3.03;1.30;;;;;;;18.70;64.20;95866.38;5031495;28;24861;-72
2022/07/27 00:25:20;;;;;;;2.53;1.30;;;;;;;18.44;65.03;95874.06;5042259;28;24527;-72
2022/07/27 00:27:46;;;;;;;4.10;1.70;;;;;;;18.43;65.13;95868.00;5034924;28;24438;-72
2022/07/27 00:30:13;;;;;;;2.20;0.93;;;;;;;18.45;65.21;95871.28;5027925;28;25073;-72
2022/07/27 00:32:39;;;;;;;4.05;1.63;;;;;;;18.47;65.33;95871.16;5036748;28;24474;-72
2022/07/27 00:35:09;;;;;;;2.28;1.15;;;;;;;18.57;64.78;95872.75;5042947;28;24455;-74
2022/07/27 00:37:35;;;;;;;2.97;1.67;;;;;;;18.68;64.65;95868.31;5037010;28;24802;-74
2022/07/27 00:40:02;;;;;;;2.88;1.10;;;;;;;18.76;65.04;95876.31;5062681;22;24468;-73
2022/07/27 00:42:30;;;;;;;3.35;1.20;;;;;;;18.75;65.22;95879.91;5042275;28;24443;-73
2022/07/27 00:44:57;;;;;;;2.83;1.38;;;;;;;18.74;65.26;95868.59;5031347;28;24526;-74
2022/07/27 00:47:24;;;;;;;3.47;1.40;;;;;;;18.75;65.22;95866.81;5031065;28;24837;-74
2022/07/27 00:49:51;;;;;;;2.92;1.20;;;;;;;18.71;66.25;95862.81;5030743;28;24443;-74
2022/07/27 00:52:21;;;;;;;1.63;1.17;;;;;;;18.71;65.97;95866.25;5031351;28;24513;-74
2022/07/27 00:54:47;;;;;;;2.25;1.20;;;;;;;18.66;66.04;95863.22;5032012;28;24832;-73
2022/07/27 00:57:15;;;;;;;1.87;1.30;;;;;;;18.63;65.62;95859.06;5032392;28;24549;-73
2022/07/27 00:59:42;;;;;;;2.70;1.70;;;;;;;18.46;66.01;95861.63;5030774;28;24442;-73
2022/07/27 01:02:09;;;;;;;3.00;1.30;;;;;;;18.27;66.80;95857.25;5029551;28;24442;-73
2022/07/27 01:04:36;;;;;;;2.20;1.35;;;;;;;18.11;67.67;95856.03;5029590;28;24999;-73
2022/07/27 01:07:05;;;;;;;3.05;1.30;;;;;;;17.85;68.82;95847.13;5032428;28;24485;-73
2022/07/27 01:12:20;;;;;;;2.15;1.38;;;;;;;17.73;69.54;95837.72;5039544;28;25109;-73
2022/07/27 01:14:47;;;;;;;2.42;1.50;;;;;;;17.58;70.28;95837.31;5041579;28;24983;-73
2022/07/27 01:17:14;;;;;;;1.50;1.27;;;;;;;17.52;70.84;95841.28;5037677;28;24447;-73
2022/07/27 01:19:40;;;;;;;2.40;1.40;;;;;;;17.43;71.12;95842.13;5032442;28;24443;-73
2022/07/27 01:22:08;;;;;;;2.33;1.30;;;;;;;17.48;71.28;95841.72;5032940;28;24440;-73
2022/07/27 01:24:35;;;;;;;1.80;1.20;;;;;;;17.70;70.30;95851.09;5032814;28;24482;-74
2022/07/27 01:27:03;;;;;;;3.47;1.60;;;;;;;17.82;69.73;95842.16;5033148;28;24459;-73
2022/07/27 01:29:30;;;;;;;3.33;1.02;;;;;;;17.92;69.81;95839.53;5031279;28;24444;-73
2022/07/27 01:31:57;;;;;;;2.67;1.35;;;;;;;17.96;70.02;95836.47;5032542;28;24891;-73
2022/07/27 01:34:24;;;;;;;2.80;1.02;;;;;;;17.96;69.80;95830.41;5036408;28;24443;-74
2022/07/27 01:36:50;;;;;;;4.18;1.30;;;;;;;17.87;69.85;95826.81;5025315;28;24443;-73
2022/07/27 01:39:19;;;;;;;2.43;1.40;;;;;;;17.90;69.81;95826.53;5026081;28;24448;-73
2022/07/27 01:41:46;;;;;;;2.03;1.15;;;;;;;17.89;69.83;95824.91;5032318;28;24444;-73
2022/07/27 01:44:13;;;;;;;1.90;1.00;;;;;;;17.94;69.54;95827.09;5032468;28;24436;-73
2022/07/27 01:46:40;;;;;;;3.38;1.35;;;;;;;17.94;69.58;95816.63;5029922;28;24438;-73
2022/07/27 01:49:06;;;;;;;1.95;1.50;;;;;;;18.01;70.27;95809.84;5031983;28;24980;-74
2022/07/27 01:51:33;;;;;;;2.30;1.30;;;;;;;17.98;70.89;95813.56;5033774;28;24436;-73
2022/07/27 01:53:59;;;;;;;3.30;1.80;;;;;;;17.76;72.19;95814.72;5036036;28;24496;-73
2022/07/27 01:56:27;;;;;;;2.83;1.38;;;;;;;17.57;72.98;95815.50;5029825;28;24447;-73
2022/07/27 01:58:54;;;;;;;3.00;1.40;;;;;;;17.33;73.76;95807.25;5029003;28;24482;-74
2022/07/27 02:01:21;;;;;;;2.55;1.60;;;;;;;17.21;74.62;95813.59;5021688;28;24490;-74
2022/07/27 02:03:47;;;;;;;1.73;1.15;;;;;;;17.06;75.82;95815.75;5028425;28;24447;-74
2022/07/27 02:06:14;;;;;;;4.18;1.80;;;;;;;16.86;76.05;95813.06;5030341;28;24444;-73
2022/07/27 02:08:40;;;;;;;5.68;2.10;;;;;;;16.79;76.65;95808.50;5034446;28;24439;-73
2022/07/27 02:13:52;;;;;;;3.65;1.70;;;;;;;16.76;77.02;95798.31;5041925;28;24396;-74
2022/07/27 02:16:19;;;;;;;3.20;1.65;;;;;;;16.59;77.52;95805.00;5034652;28;24455;-73
2022/07/27 02:18:46;;;;;;;3.88;1.80;;;;;;;16.56;77.99;95797.41;5025291;28;24436;-74
2022/07/27 02:21:13;;;;;;;2.42;1.50;;;;;;;16.39;78.85;95794.47;5031302;28;25007;-73
2022/07/27 02:23:41;;;;;;;6.33;1.40;;;;;;;16.34;80.06;95808.88;5032952;28;24443;-73
2022/07/27 02:26:08;;;;;;;2.83;1.70;;;;;;;16.37;80.04;95803.38;5020629;28;25010;-74
2022/07/27 02:28:35;;;;;;;4.20;1.77;;;;;;;16.49;79.63;95804.13;5020343;28;24498;-74
2022/07/27 02:31:03;;;;;;;2.55;1.40;;;;;;;16.72;77.58;95792.50;5029064;28;24984;-74
2022/07/27 02:33:30;;;;;;;2.88;1.58;;;;;;;16.73;77.26;95794.16;5027892;28;24486;-74
2022/07/27 02:35:57;;;;;;;2.83;1.50;;;;;;;16.72;77.25;95789.06;5020821;28;24448;-74
2022/07/27 02:38:24;;;;;;;4.00;2.05;;;;;;;16.53;78.73;95808.13;5029533;28;24479;-74
2022/07/27 02:40:50;;;;;;;1.87;1.37;;;;;;;16.46;78.76;95810.44;5031944;28;24462;-74
2022/07/27 02:43:17;;;;;;;2.60;1.58;;;;;;;16.35;79.85;95805.28;5029809;28;24435;-73
2022/07/27 02:45:43;;;;;;;2.63;1.30;;;;;;;16.39;79.64;95806.72;5034329;28;24423;-73
2022/07/27 02:48:11;;;;;;;1.90;1.30;;;;;;;16.45;79.52;95816.63;5020950;28;24428;-73
2022/07/27 02:50:37;;;;;;;2.35;1.50;;;;;;;16.53;79.69;95808.13;5029626;28;24448;-74
2022/07/27 02:53:04;;;;;;;2.50;1.70;;;;;;;16.42;80.65;95801.19;5032214;28;24471;-74
2022/07/27 02:55:30;;;;;;;4.43;1.90;;;;;;;16.52;80.16;95811.72;5024156;28;24475;-73
2022/07/27 02:57:57;;;;;;;1.88;1.58;;;;;;;16.39;81.15;95804.09;5029429;28;24436;-74
2022/07/27 03:00:23;;;;;;;2.42;1.65;;;;;;;16.31;81.69;95809.94;5029195;28;24439;-74
2022/07/27 03:02:50;;;;;;;2.90;1.60;;;;;;;16.35;81.48;95807.91;5029454;28;24448;-73
2022/07/27 03:05:18;;;;;;;2.95;1.67;;;;;;;16.52;81.31;95809.91;5029742;28;24440;-73
2022/07/27 03:07:45;;;;;;;3.40;1.92;;;;;;;16.63;81.03;95809.81;5029598;28;24444;-77
2022/07/27 03:10:11;;;;;;;4.47;2.00;;;;;;;16.98;80.67;95803.31;5030638;28;24494;-72
2022/07/27 03:12:38;;;;;;;2.47;1.50;;;;;;;16.93;80.96;95805.53;5028828;28;24437;-77
2022/07/27 03:15:05;;;;;;;2.55;1.63;;;;;;;16.65;80.85;95804.47;5031287;28;24440;-72
2022/07/27 03:17:32;;;;;;;4.40;1.70;;;;;;;16.47;81.71;95809.50;5034438;28;24438;-73
2022/07/27 03:19:59;;;;;;;3.38;1.70;;;;;;;16.45;81.98;95806.16;5034028;28;24462;-73
2022/07/27 03:22:29;;;;;;;3.35;2.00;;;;;;;16.35;82.95;95810.50;5040043;28;24498;-72
2022/07/27 03:24:56;;;;;;;3.95;1.90;;;;;;;16.26;83.75;95813.94;5026466;28;24447;-73
2022/07/27 03:27:22;;;;;;;2.22;1.55;;;;;;;16.40;83.44;95810.97;5040070;28;24974;-73
2022/07/27 03:29:48;;;;;;;2.85;2.03;;;;;;;16.40;83.50;95813.59;5042713;28;24993;-73
2022/07/27 03:32:15;;;;;;;2.00;1.55;;;;;;;16.49;82.98;95814.56;5042752;28;24435;-73
2022/07/27 03:34:41;;;;;;;2.47;1.77;;;;;;;16.66;82.71;95816.56;5035896;28;24443;-73
2022/07/27 03:37:08;;;;;;;2.45;1.63;;;;;;;16.79;82.30;95814.56;5034467;28;24452;-73
2022/07/27 03:39:36;;;;;;;2.97;1.80;;;;;;;16.82;81.35;95813.47;5034338;28;24985;-73
2022/07/27 03:42:02;;;;;;;2.47;1.88;;;;;;;16.71;82.19;95814.38;5037377;28;24932;-73
2022/07/27 03:44:29;;;;;;;1.85;1.42;;;;;;;16.78;82.19;95810.31;5036722;28;24442;-73
2022/07/27 03:46:55;;;;;;;2.70;1.70;;;;;;;16.70;82.27;95810.94;5034906;28;24544;-73
2022/07/27 03:49:22;;;;;;;2.85;2.05;;;;;;;16.45;84.47;95806.16;5045212;28;24447;-73
2022/07/27 03:51:48;;;;;;;3.92;2.30;;;;;;;16.32;85.59;95805.56;5036375;28;24439;-73
2022/07/27 03:54:16;;;;;;;2.50;1.80;;;;;;;16.17;86.12;95805.09;5031721;28;24511;-73
2022/07/27 03:56:44;;;;;;;2.63;1.70;;;;;;;16.27;86.02;95810.34;5035640;28;24509;-73
2022/07/27 03:59:11;;;;;;;3.15;2.08;;;;;;;16.20;86.67;95804.81;5032485;28;24432;-73
2022/07/27 04:01:37;;;;;;;3.72;1.88;;;;;;;16.28;86.48;95809.38;5044472;28;24431;-73
2022/07/27 04:04:04;;;;;;;4.90;2.10;;;;;;;16.34;86.72;95809.69;5033601;28;25067;-73
2022/07/27 04:06:30;;;;;;;3.53;1.60;;;;;;;16.53;85.61;95808.13;5035831;28;24431;-74
2022/07/27 04:08:57;;;;;;;7.30;2.30;;;;;;;16.51;86.09;95813.50;5037955;28;24431;-74
2022/07/27 04:11:23;;;;;;;3.70;1.85;;;;;;;16.45;86.49;95808.78;5038152;28;24443;-74
2022/07/27 04:13:51;;;;;;;2.85;1.83;;;;;;;16.39;87.32;95811.94;5032071;28;25038;-74
2022/07/27 04:16:18;;;;;;;4.28;2.33;;;;;;;16.27;87.73;95799.91;5033474;28;24459;-75
2022/07/27 04:18:44;;;;;;;3.55;1.60;;;;;;;16.19;88.38;95806.59;5031417;28;24458;-73
2022/07/27 04:21:12;;;;;;;2.65;1.98;;;;;;;16.35;88.28;95808.75;5031856;28;24435;-73
2022/07/27 04:23:38;;;;;;;3.78;2.22;;;;;;;16.48;86.88;95805.91;5031434;28;24499;-73
2022/07/27 04:26:05;;;;;;;2.95;2.00;;;;;;;16.36;87.96;95806.97;5031815;28;24432;-73
2022/07/27 04:28:32;;;;;;;2.17;1.70;;;;;;;16.56;86.31;95811.31;5032425;28;24439;-73
2022/07/27 04:31:00;;;;;;;2.17;1.67;;;;;;;16.47;87.32;95806.06;5032401;28;24530;-74
2022/07/27 04:33:26;;;;;;;2.25;1.90;;;;;;;16.52;86.44;95804.69;5038411;28;24432;-73
2022/07/27 04:35:53;;;;;;;2.83;1.98;;;;;;;16.69;85.95;95817.13;5032676;28;24459;-74
2022/07/27 04:38:19;;;;;;;2.45;1.90;;;;;;;16.81;86.24;95824.91;5032382;28;24432;-73
2022/07/27 04:40:46;;;;;;;4.47;1.95;;;;;;;16.91;85.94;95823.16;5032545;28;24813;-73
2022/07/27 04:43:12;;;;;;;3.47;2.10;;;;;;;17.05;85.98;95820.13;5031618;28;24428;-73
2022/07/27 04:45:39;;;;;;;11.38;2.22;;;;;;;17.07;85.57;95822.63;5031175;28;24462;-73
2022/07/27 04:48:09;;;;;;;2.30;1.63;;;;;;;17.21;85.37;95831.91;5031851;28;24435;-73
2022/07/27 04:50:39;;;;;;;3.67;2.20;;;;;;;17.59;83.57;95818.00;5032282;28;24528;-73
2022/07/27 04:53:06;;;;;;;3.17;2.13;;;;;;;17.38;84.46;95824.19;5031709;28;24513;-70
2022/07/27 04:55:32;;;;;;;2.90;1.90;;;;;;;17.31;84.86;95822.25;5031151;28;24474;-68
2022/07/27 04:57:59;;;;;;;4.47;2.10;;;;;;;17.42;84.75;95833.41;5031375;28;24550;-68
2022/07/27 05:00:25;;;;;;;5.65;2.13;;;;;;;17.34;85.75;95829.84;5030806;28;25039;-71
2022/07/27 05:02:52;;;;;;;3.63;1.88;;;;;;;17.24;85.78;95831.59;5022976;28;24431;-69
2022/07/27 05:05:20;;;;;;;3.25;1.90;;;;;;;17.20;84.81;95838.91;5031134;28;24439;-69
2022/07/27 05:07:46;;;;;;;6.38;2.17;;;;;;;17.23;85.44;95835.19;5030826;28;24440;-68
2022/07/27 05:10:12;;;;;;;6.35;2.40;;;;;;;17.01;86.83;95844.94;5028959;28;24462;-68
2022/07/27 05:12:39;;;;;;;2.22;1.60;;;;;;;17.04;87.37;95849.91;5030928;28;24477;-69
2022/07/27 05:15:06;;;;;;;5.15;1.95;;;;;;;17.03;87.03;95853.47;5030981;28;24431;-68
2022/07/27 05:17:32;;;;;;;3.50;2.10;;;;;;;16.98;87.50;95853.03;5030628;28;24447;-68
2022/07/27 05:20:00;;;;;;;3.25;1.90;;;;;;;17.10;87.05;95857.22;5030698;28;24442;-68
2022/07/27 05:22:28;;;;;;;2.75;2.00;;;;;;;17.00;86.94;95866.00;5030610;28;24435;-69
2022/07/27 05:24:54;;;;;;;4.32;1.98;;;;;;;16.80;88.45;95867.72;5030750;28;24439;-70
2022/07/27 05:27:21;;;;;;;3.47;1.90;;;;;;;16.86;88.52;95862.78;5030867;28;24435;-68
2022/07/27 05:29:48;;;;;;;4.28;1.98;;;;;;;16.99;88.34;95864.34;5030392;28;24431;-68
2022/07/27 05:32:15;;;;;;;2.42;1.80;;;;;;;17.15;87.50;95860.25;5030605;28;24447;-68
2022/07/27 05:34:44;;;;;;;6.90;2.22;;;;;;;17.13;86.91;95859.56;5030267;28;24809;-68
2022/07/27 05:37:11;;;;;;;3.28;2.10;;;;;;;17.25;86.24;95864.69;5029541;28;24447;-69
2022/07/27 05:39:41;;;;;;;2.60;1.80;;;;;;;17.33;85.64;95862.22;5029790;28;24980;-68
2022/07/27 05:42:07;;;;;;;3.67;1.73;;;;;;;17.51;85.56;95855.34;5030456;28;24436;-69
2022/07/27 05:44:35;;;;;;;2.10;1.70;;;;;;;17.71;85.67;95853.56;5029697;28;24441;-69
2022/07/27 05:47:01;;;;;;;2.33;1.60;;;;;;;17.88;83.64;95862.56;5029890;28;25145;-68
2022/07/27 05:49:28;;;;;;;2.67;1.70;;;;;;;17.94;83.31;95855.91;5029516;28;25051;-68
2022/07/27 05:51:54;;;;;;;4.00;2.00;;;;;;;17.99;81.44;95861.59;5030141;28;25080;-68
2022/07/27 05:54:21;;;;;;;2.20;1.77;;;;;;;17.94;82.07;95867.22;5029670;28;24872;-68
2022/07/27 05:56:48;;;;;;;3.88;2.20;;;;;;;18.02;82.13;95877.88;5028680;28;24806;-69
2022/07/27 05:59:15;;;;;;;3.33;1.80;;;;;;;17.93;81.59;95876.06;5032233;28;24439;-74
2022/07/27 06:01:41;;;;;;;3.15;1.70;;;;;;;18.07;80.67;95887.91;5031693;28;24809;-73
2022/07/27 06:04:08;;;;;;;3.90;2.10;;;;;;;17.87;82.18;95887.09;5026339;28;24583;-72
2022/07/27 06:09:18;;;;;;;2.88;1.77;;;;;;;17.79;83.10;95879.09;5030287;28;25079;-72
2022/07/27 06:11:45;;;;;;;6.63;2.10;;;;;;;17.69;83.21;95879.06;5030835;28;24432;-72
2022/07/27 06:14:13;;;;;;;5.22;1.92;;;;;;;17.81;82.21;95885.03;5030554;28;24443;-72
2022/07/27 06:16:39;;;;;;;6.38;2.30;;;;;;;17.77;82.67;95894.13;5030544;28;24528;-73
2022/07/27 06:19:06;;;;;;;4.18;2.30;;;;;;;17.71;83.36;95884.16;5029988;28;24436;-72
2022/07/27 06:21:32;;;;;;;2.60;1.60;;;;;;;17.94;82.17;95882.13;5030327;28;24980;-72
2022/07/27 06:23:59;;;;;;;6.18;2.05;;;;;;;18.01;82.67;95886.66;5030711;28;24443;-72
2022/07/27 06:26:25;;;;;;;4.18;2.40;;;;;;;18.04;81.24;95890.81;5034728;28;24435;-72
2022/07/27 06:28:57;;;;;;;5.97;2.47;;;;;;;17.66;81.90;95885.41;5022335;28;24829;-71
2022/07/27 06:31:25;;;;;;;3.72;2.45;;;;;;;17.85;82.36;95891.66;5030560;28;24443;-72
2022/07/27 06:33:52;;;;;;;4.68;2.30;;;;;;;17.74;81.84;95889.13;5023802;28;24440;-72
2022/07/27 06:36:19;;;;;;;4.22;2.38;;;;;;;17.61;82.70;95887.63;5030081;28;24541;-71
2022/07/27 06:38:45;;;;;;;6.80;2.70;;;;;;;18.06;81.29;95894.13;5036653;28;24451;-72
2022/07/27 06:41:12;;;;;;;6.60;2.58;;;;;;;17.95;80.67;95883.78;5037708;23;24471;-72
2022/07/27 06:43:38;;;;;;;4.35;2.20;;;;;;;17.90;81.50;95890.25;5029450;28;24811;-73
2022/07/27 06:46:06;;;;;;;4.03;2.33;;;;;;;18.02;80.76;95885.72;5025594;28;24428;-72
2022/07/27 06:48:34;;;;;;;2.20;1.85;;;;;;;18.04;80.48;95899.50;5026527;28;25003;-72
2022/07/27 06:51:00;;;;;;;4.13;2.75;;;;;;;18.57;77.97;95885.03;5033707;28;24467;-72
2022/07/27 06:53:27;;;;;;;4.03;2.22;;;;;;;18.36;79.61;95888.69;5033592;28;24435;-72
2022/07/27 06:55:53;;;;;;;10.40;2.50;;;;;;;18.48;80.53;95891.97;5033383;28;24494;-72
2022/07/27 06:58:20;;;;;;;5.80;2.07;;;;;;;18.80;78.39;95896.03;5033057;28;24509;-72
2022/07/27 07:00:46;;;;;;;6.93;2.40;;;;;;;18.78;77.25;95890.13;5033027;28;24494;-72
2022/07/27 07:03:13;;;;;;;6.90;2.30;;;;;;;18.80;76.72;95888.16;5036765;28;24535;-71
2022/07/27 07:05:44;;;;;;;4.03;2.63;;;;;;;18.85;77.67;95897.28;5019460;28;24514;-73
2022/07/27 07:08:12;;;;;;;5.68;2.30;;;;;;;18.45;78.93;95889.63;5036103;28;24458;-71
2022/07/27 07:10:39;;;;;;;3.92;2.03;;;;;;;18.02;81.22;95890.09;5042631;28;25055;-71
2022/07/27 07:13:07;;;;;;;6.30;2.57;;;;;;;18.56;78.35;95884.22;5032945;28;24476;-71
2022/07/27 07:15:35;;;;;;;3.08;2.10;;;;;;;18.70;78.09;95882.94;5033247;28;24509;-71
2022/07/27 07:18:02;;;;;;;3.92;2.03;;;;;;;18.68;78.37;95894.53;5032621;28;24448;-72
2022/07/27 07:20:29;;;;;;;4.87;2.43;;;;;;;18.83;77.80;95895.75;5032247;28;24472;-72
2022/07/27 07:22:57;;;;;;;4.70;2.42;;;;;;;18.97;76.77;95897.91;5032803;28;24987;-71
2022/07/27 07:25:24;;;;;;;4.88;2.60;;;;;;;19.13;76.06;95894.66;5032809;28;24506;-71
2022/07/27 07:27:51;;;;;;;3.47;2.60;;;;;;;19.33;75.25;95890.16;5032635;28;24428;-72
2022/07/27 07:30:18;;;;;;;3.40;2.20;;;;;;;19.39;76.82;95888.72;5018986;28;24510;-72
2022/07/27 07:32:45;;;;;;;4.35;2.40;;;;;;;19.64;75.50;95882.78;5018013;28;24436;-72
2022/07/27 07:35:11;;;;;;;4.27;2.20;;;;;;;19.52;74.81;95884.78;5032682;28;24518;-72
2022/07/27 07:37:38;;;;;;;3.80;2.38;;;;;;;19.06;75.32;95883.13;5032557;28;24455;-73
2022/07/27 07:40:09;;;;;;;5.90;2.10;;;;;;;19.08;77.64;95879.34;5026142;28;24864;-73
2022/07/27 07:42:48;;;;;;;4.63;2.40;;;;;;;19.65;74.80;95873.09;5031997;28;24454;-73
2022/07/27 07:45:15;;;;;;;4.72;2.47;;;;;;;20.08;71.08;95861.00;5032706;28;24434;-73
2022/07/27 07:47:41;;;;;;;3.88;1.98;;;;;;;20.24;70.97;95875.06;5032183;28;24440;-73
2022/07/27 07:50:09;;;;;;;3.78;2.65;;;;;;;20.17;69.51;95870.56;5032048;28;24447;-73
2022/07/27 07:52:36;;;;;;;3.40;2.05;;;;;;;20.24;71.42;95882.13;5033681;28;24443;-73
2022/07/27 07:55:02;;;;;;;8.20;2.20;;;;;;;20.46;69.44;95879.00;5032006;28;24442;-73
2022/07/27 07:57:30;;;;;;;2.97;2.28;;;;;;;20.50;67.84;95874.28;5032263;28;24459;-73
2022/07/27 07:59:56;;;;;;;3.58;2.15;;;;;;;20.66;68.73;95876.22;5031322;28;24444;-73
2022/07/27 08:02:23;;;;;;;5.97;2.55;;;;;;;20.86;67.79;95882.06;5032058;28;24798;-73
2022/07/27 08:04:49;;;;;;;4.45;2.38;;;;;;;20.83;66.03;95888.47;5039268;28;24442;-73
2022/07/27 08:07:16;;;;;;;9.13;2.28;;;;;;;20.88;69.29;95883.56;5031776;28;24956;-73
2022/07/27 08:09:43;;;;;;;4.00;2.20;;;;;;;21.02;67.21;95880.34;5031992;28;24524;-73
2022/07/27 08:12:09;;;;;;;4.07;2.45;;;;;;;20.91;67.33;95887.69;5031943;28;24539;-73
2022/07/27 08:14:37;;;;;;;3.67;2.00;;;;;;;20.34;68.66;95893.41;5031913;28;24789;-73
2022/07/27 08:17:03;;;;;;;5.60;2.55;;;;;;;20.71;70.02;95890.53;5031765;28;24463;-73
2022/07/27 08:19:30;;;;;;;4.15;2.05;;;;;;;20.41;68.79;95886.53;5025149;28;24842;-73
2022/07/27 08:21:56;;;;;;;6.65;2.17;;;;;;;20.44;69.35;95894.13;5031510;28;24860;-73
2022/07/27 08:24:23;;;;;;;5.43;2.22;;;;;;;20.79;69.87;95889.75;5030136;28;24434;-73
2022/07/27 08:26:49;;;;;;;5.03;2.40;;;;;;;20.89;66.29;95889.66;5030977;28;24485;-73
2022/07/27 08:29:16;;;;;;;4.80;3.00;;;;;;;20.85;65.78;95890.97;5012789;28;24822;-73
2022/07/27 08:31:43;;;;;;;6.60;2.60;;;;;;;20.94;66.04;95890.81;5016040;28;24837;-73
2022/07/27 08:34:10;;;;;;;4.33;2.20;;;;;;;20.78;65.83;95885.50;5014540;28;24844;-74
2022/07/27 08:36:36;;;;;;;3.33;2.13;;;;;;;20.49;67.02;95889.25;5015222;28;24468;-73
2022/07/27 08:39:07;;;;;;;6.28;2.67;;;;;;;20.40;66.65;95894.59;5016251;28;24436;-73
2022/07/27 08:41:37;;;;;;;3.83;2.20;;;;;;;20.70;65.46;95899.44;5015296;28;24525;-73
2022/07/27 08:44:05;;;;;;;4.57;2.30;;;;;;;20.41;66.07;95894.44;5014540;28;24440;-73
2022/07/27 08:46:31;;;;;;;4.35;2.30;;;;;;;20.71;66.16;95892.34;5014696;28;24802;-73
2022/07/27 08:49:01;;;;;;;4.13;2.60;;;;;;;20.47;65.62;95893.84;5014298;28;25000;-73
2022/07/27 08:51:29;;;;;;;3.08;2.40;;;;;;;20.43;68.19;95889.00;5018382;28;24559;-73
2022/07/27 08:53:55;;;;;;;5.60;2.33;;;;;;;20.41;66.20;95904.97;5020905;28;24436;-73
2022/07/27 08:56:22;;;;;;;4.13;2.10;;;;;;;20.58;67.21;95905.94;5026927;28;24527;-73
2022/07/27 08:58:49;;;;;;;2.87;2.10;;;;;;;20.19;67.46;95908.09;5017367;28;24547;-73
2022/07/27 09:01:15;;;;;;;4.55;2.10;;;;;;;20.19;68.04;95911.53;5025267;28;24509;-73
2022/07/27 09:03:42;;;;;;;4.88;2.42;;;;;;;20.40;67.56;95905.13;5012280;28;24495;-73
2022/07/27 09:06:10;;;;;;;4.03;2.57;;;;;;;20.09;68.25;95905.53;5011406;28;24803;-73
2022/07/27 09:08:37;;;;;;;5.05;2.85;;;;;;;19.83;69.55;95908.91;5011832;28;24490;-73
2022/07/27 09:11:13;;;;;;;5.50;2.28;;;;;;;19.96;69.74;95905.91;5022967;28;25378;-73
2022/07/27 09:13:40;;;;;;;2.60;2.28;;;;;;;20.43;68.44;95900.38;5023235;28;24527;-73
2022/07/27 09:16:08;;;;;;;3.08;2.03;;;;;;;20.33;67.72;95909.34;5028814;28;24439;-73
2022/07/27 09:18:36;;;;;;;3.70;2.13;;;;;;;20.48;67.40;95908.63;5027310;28;24463;-73
2022/07/27 09:21:17;;;;;;;6.50;2.60;;;;;;;21.03;66.10;95908.31;5020359;28;24527;-73
2022/07/27 09:23:45;;;;;;;3.67;2.70;;;;;;;21.58;65.33;95912.34;5014772;28;24893;-73
2022/07/27 09:26:14;;;;;;;3.10;2.17;;;;;;;21.99;63.39;95915.88;5025005;28;24432;-74
2022/07/27 09:28:40;;;;;;;3.55;2.42;;;;;;;21.53;62.28;95913.81;5030059;28;24435;-75
2022/07/27 09:31:08;;;;;;;4.43;2.50;;;;;;;21.47;61.23;95902.94;5029201;28;24509;-74
2022/07/27 09:33:42;;;;;;;3.83;2.35;;;;;;;21.79;62.56;95911.06;5015726;28;24954;-74
2022/07/27 09:36:09;;;;;;;4.78;2.85;;;;;;;22.51;58.39;95900.72;5018398;28;24543;-74
2022/07/27 09:38:37;;;;;;;5.55;2.60;;;;;;;23.13;60.25;95890.38;5029503;28;24479;-73
2022/07/27 09:41:05;;;;;;;6.55;2.85;;;;;;;22.87;56.66;95896.69;5030162;28;24435;-75
2022/07/27 09:43:44;;;;;;;2.97;2.30;;;;;;;22.72;57.86;95895.75;5027237;28;24493;-74
2022/07/27 09:46:11;;;;;;;3.28;2.55;;;;;;;22.41;57.30;95895.63;5030415;28;24439;-74
2022/07/27 09:48:37;;;;;;;4.37;2.50;;;;;;;22.41;57.95;95893.81;5028077;28;24973;-74
2022/07/27 09:51:06;;;;;;;4.63;2.28;;;;;;;22.62;56.84;95905.66;5030059;28;25030;-74
2022/07/27 09:53:34;;;;;;;4.30;2.67;;;;;;;22.39;57.78;95890.50;5030084;28;24432;-73
2022/07/27 09:56:05;;;;;;;3.25;2.70;;;;;;;22.21;57.50;95895.13;5030250;28;24446;-73
2022/07/27 09:58:46;;;;;;;4.25;2.30;;;;;;;22.06;58.10;95897.56;5027816;28;24523;-74
2022/07/27 10:01:16;;;;;;;4.22;2.47;;;;;;;22.27;58.77;95904.22;5025888;28;24438;-73
2022/07/27 10:03:43;;;;;;;4.97;2.35;;;;;;;22.23;58.16;95907.19;5029985;28;24439;-73
2022/07/27 10:06:09;;;;;;;4.15;1.75;;;;;;;22.02;58.21;95905.97;5029811;28;24505;-73
2022/07/27 10:08:37;;;;;;;4.50;2.35;;;;;;;22.01;58.31;95904.34;5023298;28;24436;-73
2022/07/27 10:11:05;;;;;;;10.93;2.00;;;;;;;21.74;58.96;95911.56;5019935;28;25027;-73
2022/07/27 10:13:32;;;;;;;2.60;1.75;;;;;;;21.70;59.26;95912.88;5027901;28;24428;-73
2022/07/27 10:16:00;;;;;;;3.17;1.80;;;;;;;21.48;60.27;95912.47;5019577;28;24439;-73
2022/07/27 10:18:42;;;;;;;3.63;1.92;;;;;;;21.52;59.93;95914.78;5012131;28;24452;-73
2022/07/27 10:21:11;;;;;;;3.83;1.80;;;;;;;21.28;59.58;95903.13;5013256;28;25079;-73
2022/07/27 10:23:38;;;;;;;4.53;2.20;;;;;;;21.03;60.51;95902.25;5012890;28;25021;-73
2022/07/27 10:26:21;;;;;;;5.85;2.25;;;;;;;21.59;59.53;95915.81;5012390;28;25088;-73
2022/07/27 10:28:52;;;;;;;2.22;1.80;;;;;;;21.49;57.85;95900.13;5013502;28;24493;-73
2022/07/27 10:31:21;;;;;;;1.75;1.40;;;;;;;21.87;59.04;95896.06;5014824;28;24440;-74
2022/07/27 10:33:51;;;;;;;4.35;2.10;;;;;;;22.21;56.83;95893.34;5013082;28;25006;-73
2022/07/27 10:36:39;;;;;;;3.00;1.90;;;;;;;21.88;55.60;95879.28;5012519;28;24589;-73
2022/07/27 10:39:07;;;;;;;4.45;2.30;;;;;;;22.25;54.61;95883.28;5011754;28;24499;-73
2022/07/27 10:41:38;;;;;;;3.55;1.80;;;;;;;22.36;52.95;95888.22;5014169;28;25048;-73
2022/07/27 10:44:27;;;;;;;4.35;2.00;;;;;;;22.58;54.02;95885.88;5016744;28;24433;-73
2022/07/27 10:46:55;;;;;;;4.30;1.95;;;;;;;22.14;53.83;95895.00;5011816;28;24439;-73
2022/07/27 10:49:23;;;;;;;4.38;1.60;;;;;;;21.85;54.31;95887.53;5011078;28;24436;-73
2022/07/27 10:51:52;;;;;;;5.43;2.00;;;;;;;21.26;56.37;95892.78;5022384;28;24428;-73
2022/07/27 10:54:21;;;;;;;2.10;1.20;;;;;;;21.50;56.39;95899.94;5019493;28;24866;-73
2022/07/27 10:56:51;;;;;;;4.40;1.70;;;;;;;21.41;56.19;95903.56;5017570;28;24514;-73
2022/07/27 10:59:49;;;;;;;3.10;1.90;;;;;;;21.43;56.34;95906.88;5014791;28;24459;-73
2022/07/27 11:02:17;;;;;;;2.55;1.58;;;;;;;21.43;55.86;95904.25;5014524;28;24437;-73
2022/07/27 11:04:46;;;;;;;4.75;1.70;;;;;;;22.09;55.34;95897.25;5015050;28;24502;-73
2022/07/27 11:07:16;;;;;;;3.80;2.10;;;;;;;22.20;53.38;95896.13;5013058;28;24432;-73
2022/07/27 11:09:43;;;;;;;2.67;1.63;;;;;;;21.82;54.06;95901.03;5014833;28;24869;-74
2022/07/27 11:12:12;;;;;;;4.38;1.60;;;;;;;21.74;55.01;95903.66;5012912;28;24989;-73
2022/07/27 11:14:47;;;;;;;3.35;1.73;;;;;;;21.92;54.47;95896.44;5010578;28;24523;-74
2022/07/27 11:17:14;;;;;;;2.30;1.70;;;;;;;22.02;53.65;95895.44;5008684;28;24423;-71
2022/07/27 11:19:40;;;;;;;2.33;1.60;;;;;;;22.14;53.27;95892.34;5009829;28;24456;-73
2022/07/27 11:22:07;;;;;;;2.00;1.50;;;;;;;22.13;52.11;95884.56;5014545;28;24440;-74
2022/07/27 11:24:35;;;;;;;2.75;1.52;;;;;;;22.00;51.76;95885.06;5008655;28;24441;-73
2022/07/27 11:27:02;;;;;;;3.80;1.80;;;;;;;21.94;51.03;95883.88;5008761;28;24518;-74
2022/07/27 11:29:35;;;;;;;10.88;1.90;;;;;;;22.20;50.66;95873.22;5007716;28;24451;-73
2022/07/27 11:32:01;;;;;;;6.88;1.80;;;;;;;22.81;49.86;95878.91;5008803;28;24482;-73
2022/07/27 11:34:29;;;;;;;2.75;1.73;;;;;;;23.08;50.39;95877.69;5010253;28;24428;-73
2022/07/27 11:36:57;;;;;;;3.03;1.77;;;;;;;23.24;50.29;95874.13;5013069;28;24428;-73
2022/07/27 11:39:27;;;;;;;3.00;1.77;;;;;;;23.26;49.99;95876.63;5023169;28;24459;-74
2022/07/27 11:41:55;;;;;;;5.43;2.00;;;;;;;23.13;49.53;95882.44;5013527;28;25071;-73
2022/07/27 11:44:21;;;;;;;4.07;1.58;;;;;;;23.00;50.40;95879.53;5016295;28;24541;-74